Weather Data

Pearl Creek Farm: 8878 N Farm Road 75, Walnut Grove MO 65770

<== Previous Day (Monday 07 Aug 2017) | Next Day (Wednesday 09 Aug 2017) ==>

Summary Precipitation Data For Tuesday 08 August 2017

ElementValueUnits
PrecipitationT
Notes(none)
SourcePearl Creek Farm

Summary Temperature Data For Tuesday 08 August 2017

ElementValueUnits
High Temperature82 oF
Low Temperature63 oF
Average Temperature72 oF
High Humidity100 %
Low Humidity49 %
Average Humidity74 %
SourceSpringfield-Branson National Airport (SGF)

Detail Temperature Data For Tuesday 08 August 2017

Date / TimeTemp (F)RH (%)Dew Pt (F)Report Date / TimeSource
2017-08-08 00:52:00 66 90 63.0 2017-12-29 17:00:26.17417 Springfield-Branson National Airport (SGF)
2017-08-08 01:52:00 65 93 63.0 2017-12-29 17:00:26.17417 Springfield-Branson National Airport (SGF)
2017-08-08 02:52:00 65 93 63.0 2017-12-29 17:00:26.17417 Springfield-Branson National Airport (SGF)
2017-08-08 03:52:00 63 100 63.0 2017-12-29 17:00:26.17417 Springfield-Branson National Airport (SGF)
2017-08-08 04:52:00 64 100 64.0 2017-12-29 17:00:26.17417 Springfield-Branson National Airport (SGF)
2017-08-08 05:52:00 65 100 65.0 2017-12-29 17:00:26.17417 Springfield-Branson National Airport (SGF)
2017-08-08 06:52:00 67 93 65.0 2017-12-29 17:00:26.17417 Springfield-Branson National Airport (SGF)
2017-08-08 07:52:00 68 87 64.0 2017-12-29 17:00:26.17417 Springfield-Branson National Airport (SGF)
2017-08-08 08:52:00 73 76 65.0 2017-12-29 17:00:26.17417 Springfield-Branson National Airport (SGF)
2017-08-08 09:52:00 75 71 65.0 2017-12-29 17:00:26.17417 Springfield-Branson National Airport (SGF)
2017-08-08 10:52:00 78 62 64.0 2017-12-29 17:00:26.17417 Springfield-Branson National Airport (SGF)
2017-08-08 11:52:00 78 60 63.0 2017-12-29 17:00:26.17417 Springfield-Branson National Airport (SGF)
2017-08-08 12:52:00 79 58 63.0 2017-12-29 17:00:26.17417 Springfield-Branson National Airport (SGF)
2017-08-08 13:52:00 82 53 63.0 2017-12-29 17:00:26.17417 Springfield-Branson National Airport (SGF)
2017-08-08 14:52:00 82 49 61.0 2017-12-29 17:00:26.17417 Springfield-Branson National Airport (SGF)
2017-08-08 15:52:00 81 49 60.0 2017-12-29 17:00:26.17417 Springfield-Branson National Airport (SGF)
2017-08-08 16:52:00 81 49 60.0 2017-12-29 17:00:26.17417 Springfield-Branson National Airport (SGF)
2017-08-08 17:52:00 80 49 59.0 2017-12-29 17:00:26.17417 Springfield-Branson National Airport (SGF)
2017-08-08 18:52:00 76 62 62.0 2017-12-29 17:00:26.17417 Springfield-Branson National Airport (SGF)
2017-08-08 19:52:00 73 71 63.0 2017-12-29 17:00:26.17417 Springfield-Branson National Airport (SGF)
2017-08-08 20:52:00 71 76 63.0 2017-12-29 17:00:26.17417 Springfield-Branson National Airport (SGF)
2017-08-08 21:52:00 70 76 62.0 2017-12-29 17:00:26.17417 Springfield-Branson National Airport (SGF)
2017-08-08 22:52:00 69 78 62.0 2017-12-29 17:00:26.17417 Springfield-Branson National Airport (SGF)
2017-08-08 23:52:00 68 81 62.0 2017-12-29 17:00:26.17417 Springfield-Branson National Airport (SGF)

A total of 24 rows are displayed.